sensor_id;sensor_type;location;lat;lon;timestamp;pressure;altitude;pressure_sealevel;temperature;humidity
72370;BME280;60343;-32.030;115.880;2022-09-28T00:01:48;101932.06;;;21.23;56.66
72370;BME280;60343;-32.030;115.880;2022-09-28T00:04:16;101941.25;;;21.29;56.69
72370;BME280;60343;-32.030;115.880;2022-09-28T00:06:44;101931.66;;;21.26;57.23
72370;BME280;60343;-32.030;115.880;2022-09-28T00:09:13;101938.69;;;21.47;55.83
72370;BME280;60343;-32.030;115.880;2022-09-28T00:11:41;101938.59;;;21.67;55.27
72370;BME280;60343;-32.030;115.880;2022-09-28T00:14:15;101937.88;;;21.78;54.80
72370;BME280;60343;-32.030;115.880;2022-09-28T00:16:44;101939.69;;;21.97;53.95
72370;BME280;60343;-32.030;115.880;2022-09-28T00:19:13;101939.75;;;22.15;53.79
72370;BME280;60343;-32.030;115.880;2022-09-28T00:21:41;101938.44;;;22.24;53.80
72370;BME280;60343;-32.030;115.880;2022-09-28T00:24:12;101939.06;;;22.69;51.66
72370;BME280;60343;-32.030;115.880;2022-09-28T00:26:43;101939.75;;;22.90;52.35
72370;BME280;60343;-32.030;115.880;2022-09-28T00:29:25;101941.19;;;23.10;50.09
72370;BME280;60343;-32.030;115.880;2022-09-28T00:31:55;101941.81;;;23.31;50.26
72370;BME280;60343;-32.030;115.880;2022-09-28T00:34:23;101935.66;;;23.54;47.55
72370;BME280;60343;-32.030;115.880;2022-09-28T00:36:51;101936.53;;;23.66;47.86
72370;BME280;60343;-32.030;115.880;2022-09-28T00:39:19;101935.53;;;23.78;45.66
72370;BME280;60343;-32.030;115.880;2022-09-28T00:41:47;101928.31;;;23.95;46.50
72370;BME280;60343;-32.030;115.880;2022-09-28T00:44:48;101924.53;;;23.97;46.13
72370;BME280;60343;-32.030;115.880;2022-09-28T00:47:29;101923.78;;;23.89;47.36
72370;BME280;60343;-32.030;115.880;2022-09-28T00:50:05;101927.94;;;24.22;46.02
72370;BME280;60343;-32.030;115.880;2022-09-28T00:52:36;101923.66;;;24.26;46.31
72370;BME280;60343;-32.030;115.880;2022-09-28T00:55:09;101926.44;;;24.72;46.20
72370;BME280;60343;-32.030;115.880;2022-09-28T00:57:40;101916.69;;;24.88;43.32
72370;BME280;60343;-32.030;115.880;2022-09-28T01:00:16;101914.53;;;24.90;43.83
72370;BME280;60343;-32.030;115.880;2022-09-28T01:02:45;101920.09;;;25.07;44.16
72370;BME280;60343;-32.030;115.880;2022-09-28T01:05:14;101917.34;;;25.07;45.68
72370;BME280;60343;-32.030;115.880;2022-09-28T01:07:44;101922.19;;;25.40;44.70
72370;BME280;60343;-32.030;115.880;2022-09-28T01:10:13;101915.22;;;25.49;43.45
72370;BME280;60343;-32.030;115.880;2022-09-28T01:12:41;101916.53;;;25.46;42.87
72370;BME280;60343;-32.030;115.880;2022-09-28T01:15:16;101916.69;;;25.40;42.56
72370;BME280;60343;-32.030;115.880;2022-09-28T01:17:55;101906.78;;;25.79;43.81
72370;BME280;60343;-32.030;115.880;2022-09-28T01:20:49;101902.94;;;25.96;41.09
72370;BME280;60343;-32.030;115.880;2022-09-28T01:26:44;101905.56;;;26.36;42.25
72370;BME280;60343;-32.030;115.880;2022-09-28T01:29:19;101909.16;;;26.20;41.57
72370;BME280;60343;-32.030;115.880;2022-09-28T01:31:53;101906.31;;;26.48;41.27
72370;BME280;60343;-32.030;115.880;2022-09-28T01:34:26;101909.81;;;26.61;40.26
72370;BME280;60343;-32.030;115.880;2022-09-28T01:36:58;101899.78;;;26.71;39.32
72370;BME280;60343;-32.030;115.880;2022-09-28T01:39:31;101898.09;;;27.25;39.96
72370;BME280;60343;-32.030;115.880;2022-09-28T01:42:09;101890.81;;;27.63;36.29
72370;BME280;60343;-32.030;115.880;2022-09-28T01:44:43;101888.25;;;27.83;37.26
72370;BME280;60343;-32.030;115.880;2022-09-28T01:47:15;101881.31;;;28.07;34.58
72370;BME280;60343;-32.030;115.880;2022-09-28T01:49:48;101878.16;;;28.21;35.80
72370;BME280;60343;-32.030;115.880;2022-09-28T01:52:20;101878.91;;;28.53;36.06
72370;BME280;60343;-32.030;115.880;2022-09-28T01:54:54;101864.81;;;28.81;32.88
72370;BME280;60343;-32.030;115.880;2022-09-28T01:57:33;101865.69;;;28.92;32.15
72370;BME280;60343;-32.030;115.880;2022-09-28T02:00:05;101858.00;;;29.09;30.79
72370;BME280;60343;-32.030;115.880;2022-09-28T02:02:36;101856.66;;;29.12;28.70
72370;BME280;60343;-32.030;115.880;2022-09-28T02:05:05;101856.22;;;29.40;28.39
72370;BME280;60343;-32.030;115.880;2022-09-28T02:07:39;101858.44;;;29.63;28.93
72370;BME280;60343;-32.030;115.880;2022-09-28T02:10:13;101843.81;;;29.73;27.89
72370;BME280;60343;-32.030;115.880;2022-09-28T02:12:52;101846.63;;;30.13;29.12
72370;BME280;60343;-32.030;115.880;2022-09-28T02:15:25;101857.38;;;30.25;28.02
72370;BME280;60343;-32.030;115.880;2022-09-28T02:17:57;101843.28;;;30.37;26.79
72370;BME280;60343;-32.030;115.880;2022-09-28T02:20:26;101847.41;;;30.54;27.49
72370;BME280;60343;-32.030;115.880;2022-09-28T02:22:56;101852.94;;;30.34;23.95
72370;BME280;60343;-32.030;115.880;2022-09-28T02:25:29;101849.38;;;30.18;25.76
72370;BME280;60343;-32.030;115.880;2022-09-28T02:28:07;101842.72;;;30.30;26.21
72370;BME280;60343;-32.030;115.880;2022-09-28T02:30:38;101836.72;;;30.02;25.15
72370;BME280;60343;-32.030;115.880;2022-09-28T02:33:10;101836.94;;;29.85;24.28
72370;BME280;60343;-32.030;115.880;2022-09-28T02:35:40;101830.31;;;29.71;23.07
72370;BME280;60343;-32.030;115.880;2022-09-28T02:38:09;101831.41;;;29.65;25.29
72370;BME280;60343;-32.030;115.880;2022-09-28T02:40:38;101834.63;;;29.27;27.38
72370;BME280;60343;-32.030;115.880;2022-09-28T02:43:21;101832.97;;;29.21;25.84
72370;BME280;60343;-32.030;115.880;2022-09-28T02:46:00;101822.53;;;29.38;25.47
72370;BME280;60343;-32.030;115.880;2022-09-28T02:48:46;101822.41;;;29.08;29.17
72370;BME280;60343;-32.030;115.880;2022-09-28T02:51:25;101818.59;;;29.14;27.16
72370;BME280;60343;-32.030;115.880;2022-09-28T02:59:48;101819.44;;;28.62;29.31
72370;BME280;60343;-32.030;115.880;2022-09-28T03:02:26;101825.91;;;28.31;27.87
72370;BME280;60343;-32.030;115.880;2022-09-28T03:05:14;101819.34;;;28.37;29.09
72370;BME280;60343;-32.030;115.880;2022-09-28T03:07:53;101817.13;;;28.39;29.16
72370;BME280;60343;-32.030;115.880;2022-09-28T03:10:31;101808.31;;;28.37;28.73
72370;BME280;60343;-32.030;115.880;2022-09-28T03:13:01;101803.94;;;28.41;28.58
72370;BME280;60343;-32.030;115.880;2022-09-28T03:15:36;101800.13;;;28.47;29.03
72370;BME280;60343;-32.030;115.880;2022-09-28T03:18:04;101806.44;;;28.52;27.67
72370;BME280;60343;-32.030;115.880;2022-09-28T03:20:33;101801.16;;;28.36;27.52
72370;BME280;60343;-32.030;115.880;2022-09-28T03:23:01;101804.13;;;28.29;27.23
72370;BME280;60343;-32.030;115.880;2022-09-28T03:25:29;101792.59;;;28.37;29.76
72370;BME280;60343;-32.030;115.880;2022-09-28T03:27:57;101801.09;;;28.26;29.07
72370;BME280;60343;-32.030;115.880;2022-09-28T03:30:25;101804.53;;;28.11;30.94
72370;BME280;60343;-32.030;115.880;2022-09-28T03:33:03;101791.81;;;28.42;28.61
72370;BME280;60343;-32.030;115.880;2022-09-28T03:35:31;101790.75;;;28.53;26.30
72370;BME280;60343;-32.030;115.880;2022-09-28T03:37:59;101779.88;;;28.83;25.45
72370;BME280;60343;-32.030;115.880;2022-09-28T03:40:27;101779.94;;;29.04;25.80
72370;BME280;60343;-32.030;115.880;2022-09-28T03:42:55;101780.53;;;29.16;26.72
72370;BME280;60343;-32.030;115.880;2022-09-28T03:45:23;101781.34;;;29.06;28.24
72370;BME280;60343;-32.030;115.880;2022-09-28T03:47:51;101774.78;;;29.27;25.47
72370;BME280;60343;-32.030;115.880;2022-09-28T03:50:26;101764.59;;;29.48;24.66
72370;BME280;60343;-32.030;115.880;2022-09-28T03:52:54;101765.16;;;29.65;24.56
72370;BME280;60343;-32.030;115.880;2022-09-28T03:55:22;101762.13;;;29.62;27.36
72370;BME280;60343;-32.030;115.880;2022-09-28T03:57:54;101759.91;;;29.54;25.18
72370;BME280;60343;-32.030;115.880;2022-09-28T04:00:22;101755.16;;;29.24;27.67
72370;BME280;60343;-32.030;115.880;2022-09-28T04:02:50;101752.69;;;29.07;27.66
72370;BME280;60343;-32.030;115.880;2022-09-28T04:05:24;101740.28;;;29.15;26.70
72370;BME280;60343;-32.030;115.880;2022-09-28T04:07:54;101745.19;;;28.92;27.24
72370;BME280;60343;-32.030;115.880;2022-09-28T04:10:22;101733.34;;;28.92;24.75
72370;BME280;60343;-32.030;115.880;2022-09-28T04:12:53;101729.25;;;29.20;25.07
72370;BME280;60343;-32.030;115.880;2022-09-28T04:15:21;101726.53;;;29.50;28.14
72370;BME280;60343;-32.030;115.880;2022-09-28T04:17:49;101723.22;;;29.38;25.48
72370;BME280;60343;-32.030;115.880;2022-09-28T04:20:17;101722.91;;;29.24;27.15
72370;BME280;60343;-32.030;115.880;2022-09-28T04:22:51;101721.56;;;29.47;27.96
72370;BME280;60343;-32.030;115.880;2022-09-28T04:25:19;101721.00;;;29.75;25.01
72370;BME280;60343;-32.030;115.880;2022-09-28T04:27:47;101710.50;;;29.82;22.55
72370;BME280;60343;-32.030;115.880;2022-09-28T04:30:15;101712.47;;;29.36;22.58
72370;BME280;60343;-32.030;115.880;2022-09-28T04:32:45;101709.69;;;29.57;22.54
72370;BME280;60343;-32.030;115.880;2022-09-28T04:35:13;101709.13;;;29.90;22.57
72370;BME280;60343;-32.030;115.880;2022-09-28T04:37:41;101708.47;;;30.18;23.14
72370;BME280;60343;-32.030;115.880;2022-09-28T04:40:16;101708.81;;;30.02;20.96
72370;BME280;60343;-32.030;115.880;2022-09-28T04:42:44;101699.34;;;30.23;21.18
72370;BME280;60343;-32.030;115.880;2022-09-28T04:45:19;101707.03;;;30.36;21.92
72370;BME280;60343;-32.030;115.880;2022-09-28T04:47:47;101704.38;;;30.06;23.62
72370;BME280;60343;-32.030;115.880;2022-09-28T04:50:15;101703.31;;;29.87;22.82
72370;BME280;60343;-32.030;115.880;2022-09-28T04:52:43;101699.13;;;30.04;23.29
72370;BME280;60343;-32.030;115.880;2022-09-28T04:55:18;101688.91;;;30.05;21.33
72370;BME280;60343;-32.030;115.880;2022-09-28T04:57:46;101679.50;;;30.16;19.16
72370;BME280;60343;-32.030;115.880;2022-09-28T05:00:15;101690.50;;;30.31;20.54
72370;BME280;60343;-32.030;115.880;2022-09-28T05:02:43;101685.75;;;30.42;22.61
72370;BME280;60343;-32.030;115.880;2022-09-28T05:05:11;101683.22;;;30.55;23.51
72370;BME280;60343;-32.030;115.880;2022-09-28T05:07:39;101682.94;;;30.57;22.68
72370;BME280;60343;-32.030;115.880;2022-09-28T05:10:07;101679.34;;;30.56;23.75
72370;BME280;60343;-32.030;115.880;2022-09-28T05:12:41;101677.06;;;30.63;22.58
72370;BME280;60343;-32.030;115.880;2022-09-28T05:15:09;101674.50;;;30.82;23.20
72370;BME280;60343;-32.030;115.880;2022-09-28T05:17:37;101666.44;;;30.86;21.99
72370;BME280;60343;-32.030;115.880;2022-09-28T05:20:06;101657.16;;;31.10;24.35
72370;BME280;60343;-32.030;115.880;2022-09-28T05:22:34;101660.78;;;31.06;21.88
72370;BME280;60343;-32.030;115.880;2022-09-28T05:25:02;101649.69;;;31.11;21.14
72370;BME280;60343;-32.030;115.880;2022-09-28T05:27:30;101655.50;;;31.09;19.85
72370;BME280;60343;-32.030;115.880;2022-09-28T05:30:05;101657.91;;;31.50;20.08
72370;BME280;60343;-32.030;115.880;2022-09-28T05:32:33;101661.47;;;30.88;23.90
72370;BME280;60343;-32.030;115.880;2022-09-28T05:35:01;101662.31;;;30.24;25.59
72370;BME280;60343;-32.030;115.880;2022-09-28T05:37:29;101661.53;;;30.13;24.23
72370;BME280;60343;-32.030;115.880;2022-09-28T05:39:57;101658.56;;;30.00;24.39
72370;BME280;60343;-32.030;115.880;2022-09-28T05:42:30;101649.47;;;29.94;23.99
72370;BME280;60343;-32.030;115.880;2022-09-28T05:45:05;101656.91;;;29.83;24.95
72370;BME280;60343;-32.030;115.880;2022-09-28T05:47:38;101656.41;;;29.76;26.86
72370;BME280;60343;-32.030;115.880;2022-09-28T05:50:08;101652.25;;;29.69;26.28
72370;BME280;60343;-32.030;115.880;2022-09-28T05:52:37;101650.56;;;29.83;27.49
72370;BME280;60343;-32.030;115.880;2022-09-28T05:55:06;101651.75;;;29.62;28.24
72370;BME280;60343;-32.030;115.880;2022-09-28T05:57:34;101654.78;;;29.60;28.28
72370;BME280;60343;-32.030;115.880;2022-09-28T06:00:09;101647.19;;;30.16;30.29
72370;BME280;60343;-32.030;115.880;2022-09-28T06:02:37;101643.84;;;30.74;29.55
72370;BME280;60343;-32.030;115.880;2022-09-28T06:05:06;101642.34;;;30.52;29.79
72370;BME280;60343;-32.030;115.880;2022-09-28T06:07:34;101635.28;;;30.21;28.39
72370;BME280;60343;-32.030;115.880;2022-09-28T06:10:02;101642.28;;;29.83;29.99
72370;BME280;60343;-32.030;115.880;2022-09-28T06:12:30;101643.19;;;29.48;31.06
72370;BME280;60343;-32.030;115.880;2022-09-28T06:15:00;101644.56;;;29.15;32.38
72370;BME280;60343;-32.030;115.880;2022-09-28T06:17:34;101635.19;;;28.86;35.21
72370;BME280;60343;-32.030;115.880;2022-09-28T06:20:02;101640.41;;;28.82;37.00
72370;BME280;60343;-32.030;115.880;2022-09-28T06:22:30;101654.69;;;28.69;36.86
72370;BME280;60343;-32.030;115.880;2022-09-28T06:24:58;101646.69;;;28.68;35.84
72370;BME280;60343;-32.030;115.880;2022-09-28T06:27:26;101652.53;;;29.77;34.06
72370;BME280;60343;-32.030;115.880;2022-09-28T06:29:54;101650.47;;;30.78;32.74
72370;BME280;60343;-32.030;115.880;2022-09-28T06:32:22;101650.56;;;30.62;32.90
72370;BME280;60343;-32.030;115.880;2022-09-28T06:34:56;101647.22;;;30.65;32.31
72370;BME280;60343;-32.030;115.880;2022-09-28T06:37:24;101644.34;;;30.32;33.13
72370;BME280;60343;-32.030;115.880;2022-09-28T06:39:53;101640.44;;;29.33;34.12
72370;BME280;60343;-32.030;115.880;2022-09-28T06:42:21;101633.41;;;30.06;34.02
72370;BME280;60343;-32.030;115.880;2022-09-28T06:44:49;101638.22;;;30.84;32.52
72370;BME280;60343;-32.030;115.880;2022-09-28T06:47:17;101635.47;;;31.23;31.87
72370;BME280;60343;-32.030;115.880;2022-09-28T06:49:45;101645.00;;;30.67;32.24
72370;BME280;60343;-32.030;115.880;2022-09-28T06:52:18;101639.34;;;30.88;31.54
72370;BME280;60343;-32.030;115.880;2022-09-28T06:54:47;101645.63;;;31.32;30.84
72370;BME280;60343;-32.030;115.880;2022-09-28T06:57:15;101639.38;;;32.03;29.96
72370;BME280;60343;-32.030;115.880;2022-09-28T06:59:43;101643.41;;;32.34;28.68
72370;BME280;60343;-32.030;115.880;2022-09-28T07:02:11;101638.19;;;32.33;28.17
72370;BME280;60343;-32.030;115.880;2022-09-28T07:04:41;101634.16;;;32.20;27.88
72370;BME280;60343;-32.030;115.880;2022-09-28T07:07:09;101632.00;;;32.17;28.34
72370;BME280;60343;-32.030;115.880;2022-09-28T07:09:43;101632.31;;;31.34;29.53
72370;BME280;60343;-32.030;115.880;2022-09-28T07:12:11;101628.44;;;31.01;30.18
72370;BME280;60343;-32.030;115.880;2022-09-28T07:14:39;101624.38;;;30.50;32.17
72370;BME280;60343;-32.030;115.880;2022-09-28T07:17:07;101633.25;;;30.86;31.25
72370;BME280;60343;-32.030;115.880;2022-09-28T07:19:35;101632.59;;;30.99;30.72
72370;BME280;60343;-32.030;115.880;2022-09-28T07:22:03;101622.03;;;31.11;30.29
72370;BME280;60343;-32.030;115.880;2022-09-28T07:24:31;101625.19;;;30.89;30.34
72370;BME280;60343;-32.030;115.880;2022-09-28T07:27:05;101631.09;;;30.23;30.71
72370;BME280;60343;-32.030;115.880;2022-09-28T07:29:33;101629.88;;;29.80;32.09
72370;BME280;60343;-32.030;115.880;2022-09-28T07:32:01;101628.44;;;30.03;31.44
72370;BME280;60343;-32.030;115.880;2022-09-28T07:34:29;101626.84;;;29.82;32.26
72370;BME280;60343;-32.030;115.880;2022-09-28T07:36:57;101626.22;;;30.05;32.42
72370;BME280;60343;-32.030;115.880;2022-09-28T07:39:25;101628.75;;;29.87;31.67
72370;BME280;60343;-32.030;115.880;2022-09-28T07:41:53;101627.63;;;30.03;32.08
72370;BME280;60343;-32.030;115.880;2022-09-28T07:44:27;101624.09;;;29.77;32.05
72370;BME280;60343;-32.030;115.880;2022-09-28T07:46:55;101620.78;;;29.75;32.34
72370;BME280;60343;-32.030;115.880;2022-09-28T07:49:23;101627.75;;;29.42;32.65
72370;BME280;60343;-32.030;115.880;2022-09-28T07:51:51;101626.09;;;29.16;32.92
72370;BME280;60343;-32.030;115.880;2022-09-28T07:54:19;101619.47;;;28.86;32.11
72370;BME280;60343;-32.030;115.880;2022-09-28T07:56:47;101631.03;;;29.29;31.96
72370;BME280;60343;-32.030;115.880;2022-09-28T07:59:16;101629.94;;;28.89;32.55
72370;BME280;60343;-32.030;115.880;2022-09-28T08:01:50;101635.69;;;28.73;32.74
72370;BME280;60343;-32.030;115.880;2022-09-28T08:04:18;101637.16;;;28.13;32.96
72370;BME280;60343;-32.030;115.880;2022-09-28T08:06:46;101642.22;;;27.84;33.95
72370;BME280;60343;-32.030;115.880;2022-09-28T08:09:14;101639.28;;;27.54;34.37
72370;BME280;60343;-32.030;115.880;2022-09-28T08:11:42;101644.06;;;27.00;37.19
72370;BME280;60343;-32.030;115.880;2022-09-28T08:14:10;101642.47;;;26.82;38.59
72370;BME280;60343;-32.030;115.880;2022-09-28T08:16:38;101639.72;;;26.82;38.96
72370;BME280;60343;-32.030;115.880;2022-09-28T08:19:12;101642.78;;;26.59;40.48
72370;BME280;60343;-32.030;115.880;2022-09-28T08:21:40;101652.00;;;26.47;41.49
72370;BME280;60343;-32.030;115.880;2022-09-28T08:24:08;101651.72;;;26.71;41.80
72370;BME280;60343;-32.030;115.880;2022-09-28T08:26:36;101655.38;;;26.81;39.63
72370;BME280;60343;-32.030;115.880;2022-09-28T08:29:04;101655.59;;;26.75;38.57
72370;BME280;60343;-32.030;115.880;2022-09-28T08:31:32;101668.41;;;26.64;39.88
72370;BME280;60343;-32.030;115.880;2022-09-28T08:34:00;101670.31;;;26.42;40.70
72370;BME280;60343;-32.030;115.880;2022-09-28T08:36:34;101658.84;;;26.23;41.24
72370;BME280;60343;-32.030;115.880;2022-09-28T08:39:02;101666.41;;;26.16;41.59
72370;BME280;60343;-32.030;115.880;2022-09-28T08:41:37;101668.22;;;26.27;41.83
72370;BME280;60343;-32.030;115.880;2022-09-28T08:44:15;101667.91;;;26.24;42.30
72370;BME280;60343;-32.030;115.880;2022-09-28T08:46:46;101667.16;;;26.28;42.68
72370;BME280;60343;-32.030;115.880;2022-09-28T08:49:20;101673.06;;;26.20;43.14
72370;BME280;60343;-32.030;115.880;2022-09-28T08:51:57;101671.09;;;26.37;43.21
72370;BME280;60343;-32.030;115.880;2022-09-28T08:54:36;101676.53;;;26.32;43.26
72370;BME280;60343;-32.030;115.880;2022-09-28T08:57:10;101671.34;;;26.36;43.57
72370;BME280;60343;-32.030;115.880;2022-09-28T08:59:47;101673.25;;;26.14;43.55
72370;BME280;60343;-32.030;115.880;2022-09-28T09:02:19;101668.56;;;25.92;44.19
72370;BME280;60343;-32.030;115.880;2022-09-28T09:04:49;101656.88;;;25.80;44.38
72370;BME280;60343;-32.030;115.880;2022-09-28T09:10:39;101660.72;;;25.62;45.35
72370;BME280;60343;-32.030;115.880;2022-09-28T09:16:05;101675.31;;;25.51;45.86
72370;BME280;60343;-32.030;115.880;2022-09-28T09:18:39;101672.84;;;25.50;46.50
72370;BME280;60343;-32.030;115.880;2022-09-28T09:21:14;101677.34;;;25.39;46.96
72370;BME280;60343;-32.030;115.880;2022-09-28T09:23:53;101673.66;;;25.34;47.55
72370;BME280;60343;-32.030;115.880;2022-09-28T09:26:34;101676.06;;;25.30;47.82
72370;BME280;60343;-32.030;115.880;2022-09-28T09:32:07;101679.31;;;25.27;48.03
72370;BME280;60343;-32.030;115.880;2022-09-28T09:34:54;101681.97;;;25.22;47.84
72370;BME280;60343;-32.030;115.880;2022-09-28T09:37:45;101680.66;;;25.25;48.15
72370;BME280;60343;-32.030;115.880;2022-09-28T09:40:27;101675.50;;;25.28;47.66
72370;BME280;60343;-32.030;115.880;2022-09-28T09:43:25;101670.31;;;25.15;47.69
72370;BME280;60343;-32.030;115.880;2022-09-28T09:46:07;101661.88;;;25.00;47.93
72370;BME280;60343;-32.030;115.880;2022-09-28T09:48:43;101662.47;;;24.90;47.90
72370;BME280;60343;-32.030;115.880;2022-09-28T09:51:20;101661.28;;;24.69;47.46
72370;BME280;60343;-32.030;115.880;2022-09-28T09:53:52;101663.53;;;24.61;46.84
72370;BME280;60343;-32.030;115.880;2022-09-28T09:56:25;101663.72;;;24.54;47.12
72370;BME280;60343;-32.030;115.880;2022-09-28T09:59:04;101668.16;;;24.44;46.69
72370;BME280;60343;-32.030;115.880;2022-09-28T10:01:36;101671.97;;;24.31;47.01
72370;BME280;60343;-32.030;115.880;2022-09-28T10:04:13;101661.31;;;24.18;43.60
72370;BME280;60343;-32.030;115.880;2022-09-28T10:06:44;101672.03;;;24.08;41.83
72370;BME280;60343;-32.030;115.880;2022-09-28T10:09:17;101678.34;;;23.97;42.15
72370;BME280;60343;-32.030;115.880;2022-09-28T10:11:47;101670.97;;;23.85;42.45
72370;BME280;60343;-32.030;115.880;2022-09-28T10:14:23;101677.53;;;23.73;43.11
72370;BME280;60343;-32.030;115.880;2022-09-28T10:16:53;101681.31;;;23.60;43.68
72370;BME280;60343;-32.030;115.880;2022-09-28T10:19:27;101685.34;;;23.46;44.67
72370;BME280;60343;-32.030;115.880;2022-09-28T10:21:57;101688.28;;;23.33;45.16
72370;BME280;60343;-32.030;115.880;2022-09-28T10:24:30;101687.09;;;23.29;45.87
72370;BME280;60343;-32.030;115.880;2022-09-28T10:27:04;101689.91;;;23.22;46.37
72370;BME280;60343;-32.030;115.880;2022-09-28T10:32:58;101698.16;;;22.92;48.79
72370;BME280;60343;-32.030;115.880;2022-09-28T10:35:30;101698.47;;;22.84;49.23
72370;BME280;60343;-32.030;115.880;2022-09-28T10:38:12;101707.22;;;22.75;49.96
72370;BME280;60343;-32.030;115.880;2022-09-28T10:40:44;101707.72;;;22.65;50.84
72370;BME280;60343;-32.030;115.880;2022-09-28T10:43:24;101708.88;;;22.57;50.98
72370;BME280;60343;-32.030;115.880;2022-09-28T10:46:06;101719.25;;;22.49;51.73
72370;BME280;60343;-32.030;115.880;2022-09-28T10:48:51;101712.31;;;22.35;52.80
72370;BME280;60343;-32.030;115.880;2022-09-28T10:51:20;101728.78;;;22.28;53.35
72370;BME280;60343;-32.030;115.880;2022-09-28T10:54:09;101728.63;;;22.23;53.90
72370;BME280;60343;-32.030;115.880;2022-09-28T10:56:40;101731.41;;;22.16;54.74
72370;BME280;60343;-32.030;115.880;2022-09-28T10:59:35;101740.38;;;21.99;55.57
72370;BME280;60343;-32.030;115.880;2022-09-28T11:02:11;101736.78;;;21.80;56.66
72370;BME280;60343;-32.030;115.880;2022-09-28T11:04:52;101742.34;;;21.67;57.60
72370;BME280;60343;-32.030;115.880;2022-09-28T11:07:19;101744.28;;;21.60;58.06
72370;BME280;60343;-32.030;115.880;2022-09-28T11:09:49;101741.50;;;21.66;57.99
72370;BME280;60343;-32.030;115.880;2022-09-28T11:12:21;101753.25;;;21.67;58.11
72370;BME280;60343;-32.030;115.880;2022-09-28T11:14:54;101755.56;;;21.63;58.32
72370;BME280;60343;-32.030;115.880;2022-09-28T11:17:28;101765.91;;;21.55;58.48
72370;BME280;60343;-32.030;115.880;2022-09-28T11:22:45;101771.22;;;21.43;58.73
72370;BME280;60343;-32.030;115.880;2022-09-28T11:25:30;101783.88;;;21.37;58.95
72370;BME280;60343;-32.030;115.880;2022-09-28T11:28:02;101786.63;;;21.31;59.12
72370;BME280;60343;-32.030;115.880;2022-09-28T11:30:33;101784.31;;;21.28;58.87
72370;BME280;60343;-32.030;115.880;2022-09-28T11:33:10;101790.88;;;21.20;59.26
72370;BME280;60343;-32.030;115.880;2022-09-28T11:35:53;101790.88;;;21.20;59.26
72370;BME280;60343;-32.030;115.880;2022-09-28T11:38:31;101805.75;;;21.18;59.22
72370;BME280;60343;-32.030;115.880;2022-09-28T11:41:26;101806.81;;;21.10;59.45
72370;BME280;60343;-32.030;115.880;2022-09-28T11:49:52;101811.06;;;20.93;59.09
72370;BME280;60343;-32.030;115.880;2022-09-28T11:52:29;101812.34;;;20.90;59.16
72370;BME280;60343;-32.030;115.880;2022-09-28T11:55:04;101809.84;;;20.89;59.51
72370;BME280;60343;-32.030;115.880;2022-09-28T11:57:36;101816.13;;;20.89;59.38
72370;BME280;60343;-32.030;115.880;2022-09-28T12:00:06;101820.13;;;20.87;59.38
72370;BME280;60343;-32.030;115.880;2022-09-28T12:02:44;101813.22;;;20.78;59.49
72370;BME280;60343;-32.030;115.880;2022-09-28T12:05:19;101821.00;;;20.68;60.13
72370;BME280;60343;-32.030;115.880;2022-09-28T12:07:56;101823.13;;;20.59;60.35
72370;BME280;60343;-32.030;115.880;2022-09-28T12:10:34;101827.75;;;20.59;60.26
72370;BME280;60343;-32.030;115.880;2022-09-28T12:13:07;101833.81;;;20.54;60.64
72370;BME280;60343;-32.030;115.880;2022-09-28T12:15:42;101838.47;;;20.47;61.12
72370;BME280;60343;-32.030;115.880;2022-09-28T12:18:17;101838.22;;;20.48;61.05
72370;BME280;60343;-32.030;115.880;2022-09-28T12:20:50;101848.91;;;20.50;60.76
72370;BME280;60343;-32.030;115.880;2022-09-28T12:23:28;101839.28;;;20.47;61.07
72370;BME280;60343;-32.030;115.880;2022-09-28T12:26:01;101841.19;;;20.47;61.12
72370;BME280;60343;-32.030;115.880;2022-09-28T12:28:35;101839.50;;;20.39;61.23
72370;BME280;60343;-32.030;115.880;2022-09-28T12:31:13;101842.00;;;20.28;61.69
72370;BME280;60343;-32.030;115.880;2022-09-28T12:33:46;101843.88;;;20.27;61.74
72370;BME280;60343;-32.030;115.880;2022-09-28T12:36:22;101847.25;;;20.16;61.88
72370;BME280;60343;-32.030;115.880;2022-09-28T12:39:17;101841.59;;;20.04;62.64
72370;BME280;60343;-32.030;115.880;2022-09-28T12:41:59;101838.91;;;19.91;63.03
72370;BME280;60343;-32.030;115.880;2022-09-28T12:44:41;101842.63;;;19.84;63.31
72370;BME280;60343;-32.030;115.880;2022-09-28T12:47:33;101845.13;;;19.79;63.88
72370;BME280;60343;-32.030;115.880;2022-09-28T12:50:15;101842.19;;;19.67;63.98
72370;BME280;60343;-32.030;115.880;2022-09-28T12:52:56;101847.84;;;19.59;64.47
72370;BME280;60343;-32.030;115.880;2022-09-28T12:55:45;101851.38;;;19.53;64.72
72370;BME280;60343;-32.030;115.880;2022-09-28T12:58:33;101848.00;;;19.44;65.00
72370;BME280;60343;-32.030;115.880;2022-09-28T13:01:16;101853.81;;;19.35;65.46
72370;BME280;60343;-32.030;115.880;2022-09-28T13:03:59;101854.38;;;19.23;66.10
72370;BME280;60343;-32.030;115.880;2022-09-28T13:06:45;101855.38;;;19.09;66.51
72370;BME280;60343;-32.030;115.880;2022-09-28T13:09:22;101846.38;;;19.02;66.68
72370;BME280;60343;-32.030;115.880;2022-09-28T13:12:22;101844.25;;;18.91;67.01
72370;BME280;60343;-32.030;115.880;2022-09-28T13:16:01;101843.78;;;18.81;67.42
72370;BME280;60343;-32.030;115.880;2022-09-28T13:18:15;101839.34;;;18.73;68.18
72370;BME280;60343;-32.030;115.880;2022-09-28T13:21:09;101847.69;;;18.72;68.31